Time;durP1;ratioP1;P1;durP2;ratioP2;P2;SDS_P1;SDS_P2;PMS_P1;PMS_P2;Temp;Humidity;BMP_temperature;BMP_pressure;BME280_temperature;BME280_humidity;BME280_pressure;Samples;Min_cycle;Max_cycle;Signal;HPM_P1;HPM_P2
2021/06/19 00:35:53;;;;;;;6.72;4.70;;;;;;;;;;10625673;27;20050;-88
2021/06/19 00:40:54;;;;;;;11.55;4.97;;;;;;;;;;10648637;27;20027;-88
2021/06/19 00:45:55;;;;;;;7.80;4.90;;;;;;;;;;10648197;27;20107;-88
2021/06/19 00:50:56;;;;;;;9.52;5.28;;;;;;;;;;10638781;27;20154;-88
2021/06/19 00:55:57;;;;;;;7.50;4.55;;;;;;;;;;10653120;27;20035;-86
2021/06/19 01:00:58;;;;;;;8.75;4.50;;;;;;;;;;10619787;27;20039;-88
2021/06/19 01:05:59;;;;;;;8.88;4.63;;;;;;;;;;10620749;27;20031;-87
2021/06/19 01:11:00;;;;;;;6.55;4.57;;;;;;;;;;10618784;27;20035;-86
2021/06/19 01:16:01;;;;;;;8.80;4.50;;;;;;;;;;10630572;27;20035;-88
2021/06/19 01:21:02;;;;;;;8.70;3.80;;;;;;;;;;10624570;27;20131;-88
2021/06/19 01:26:03;;;;;;;5.65;3.35;;;;;;;;;;10618384;27;20031;-88
2021/06/19 01:31:04;;;;;;;6.95;3.75;;;;;;;;;;10616869;27;20042;-85
2021/06/19 01:36:05;;;;;;;5.80;3.08;;;;;;;;;;10617129;27;20035;-89
2021/06/19 01:41:13;;;;;;;2.97;2.15;;;;;;;;;;10617061;27;20495;-89
2021/06/19 01:46:15;;;;;;;2.33;2.00;;;;;;;;;;10617275;27;20034;-88
2021/06/19 01:51:16;;;;;;;2.95;1.60;;;;;;;;;;10616868;27;20045;-88
2021/06/19 01:56:17;;;;;;;3.58;1.60;;;;;;;;;;10616270;28;20031;-88
2021/06/19 02:01:18;;;;;;;2.67;1.70;;;;;;;;;;10615647;28;20063;-87
2021/06/19 02:06:19;;;;;;;4.03;1.70;;;;;;;;;;10636396;28;20054;-87
2021/06/19 02:11:20;;;;;;;4.43;1.80;;;;;;;;;;10626479;27;20484;-87
2021/06/19 02:16:21;;;;;;;3.47;1.83;;;;;;;;;;10629718;27;20118;-87
2021/06/19 02:21:22;;;;;;;2.42;1.58;;;;;;;;;;10664163;27;20019;-86
2021/06/19 02:26:23;;;;;;;2.33;1.80;;;;;;;;;;10634521;27;20059;-88
2021/06/19 02:31:24;;;;;;;2.63;1.60;;;;;;;;;;10629246;27;20366;-89
2021/06/19 02:36:25;;;;;;;2.92;1.77;;;;;;;;;;10629250;27;20035;-88
2021/06/19 02:41:26;;;;;;;3.05;1.70;;;;;;;;;;10648273;27;20058;-91
2021/06/19 02:46:27;;;;;;;2.10;1.77;;;;;;;;;;10635815;27;20492;-88
2021/06/19 02:51:28;;;;;;;2.85;1.65;;;;;;;;;;10629702;27;20031;-89
2021/06/19 02:56:29;;;;;;;2.47;1.80;;;;;;;;;;10628077;27;20495;-89
2021/06/19 06:56:00;;;;;;;1.75;1.50;;;;;;;;;;10507592;28;20123;-87
2021/06/19 07:01:42;;;;;;;3.08;2.50;;;;;;;;;;10493059;28;20047;-88
2021/06/19 07:07:18;;;;;;;2.78;2.45;;;;;;;;;;10512754;28;20040;-89
2021/06/19 07:12:36;;;;;;;3.35;2.40;;;;;;;;;;10489045;28;20059;-86
2021/06/19 07:18:03;;;;;;;3.30;2.50;;;;;;;;;;10501623;28;20123;-85
2021/06/19 07:23:09;;;;;;;5.03;3.47;;;;;;;;;;10485124;28;20040;-86
2021/06/19 07:28:26;;;;;;;3.60;2.72;;;;;;;;;;10513512;28;20037;-87
2021/06/19 07:33:27;;;;;;;5.00;2.70;;;;;;;;;;10496820;28;20032;-87
2021/06/19 07:38:38;;;;;;;4.72;2.40;;;;;;;;;;10513907;28;20021;-87
2021/06/19 07:43:40;;;;;;;3.55;2.60;;;;;;;;;;10495360;28;20033;-87
2021/06/19 07:48:41;;;;;;;3.92;3.00;;;;;;;;;;10493255;28;20037;-87
2021/06/19 07:53:51;;;;;;;2.67;2.20;;;;;;;;;;10494430;28;20036;-87
2021/06/19 07:58:53;;;;;;;4.82;3.50;;;;;;;;;;10495788;28;20503;-84
2021/06/19 08:03:56;;;;;;;3.67;2.40;;;;;;;;;;10492265;28;20036;-84
2021/06/19 08:08:59;;;;;;;3.33;3.03;;;;;;;;;;10492142;28;20482;-84
2021/06/19 08:14:05;;;;;;;3.72;3.38;;;;;;;;;;10494259;28;20036;-85
2021/06/19 08:19:06;;;;;;;3.42;2.85;;;;;;;;;;10491526;28;20036;-84
2021/06/19 08:24:08;;;;;;;2.42;2.22;;;;;;;;;;10492952;28;20028;-85
2021/06/19 08:29:09;;;;;;;3.58;2.50;;;;;;;;;;10493849;28;20039;-84
2021/06/19 08:34:13;;;;;;;3.72;3.15;;;;;;;;;;10492115;28;20032;-86
2021/06/19 08:39:14;;;;;;;3.05;2.30;;;;;;;;;;10491016;28;20043;-85
2021/06/19 08:44:22;;;;;;;3.58;2.90;;;;;;;;;;10490423;28;20043;-85
2021/06/19 08:49:24;;;;;;;2.92;2.35;;;;;;;;;;10491378;28;20132;-84
2021/06/19 08:54:25;;;;;;;5.00;3.55;;;;;;;;;;10490000;28;20024;-85
2021/06/19 08:59:26;;;;;;;4.40;2.15;;;;;;;;;;10568885;22;20051;-85
2021/06/19 09:04:28;;;;;;;4.30;2.10;;;;;;;;;;10540446;28;20470;-85
2021/06/19 09:09:33;;;;;;;5.10;2.30;;;;;;;;;;10538254;28;20032;-85
2021/06/19 09:14:34;;;;;;;5.13;2.92;;;;;;;;;;10538297;28;20043;-85
2021/06/19 09:19:36;;;;;;;2.40;1.80;;;;;;;;;;10560494;28;20044;-85
2021/06/19 09:24:45;;;;;;;1.80;1.70;;;;;;;;;;10536482;28;20452;-85
2021/06/19 09:29:45;;;;;;;3.55;1.85;;;;;;;;;;10538619;28;20042;-85
2021/06/19 09:35:07;;;;;;;2.20;1.85;;;;;;;;;;10534130;28;20138;-88
2021/06/19 09:40:20;;;;;;;2.10;1.90;;;;;;;;;;10533783;28;20080;-86
2021/06/19 09:45:59;;;;;;;2.75;2.00;;;;;;;;;;10535631;28;20127;-86
2021/06/19 09:51:11;;;;;;;4.45;1.80;;;;;;;;;;10502030;28;20095;-85
2021/06/19 09:56:12;;;;;;;3.25;1.80;;;;;;;;;;10537085;28;20032;-85
2021/06/19 10:01:33;;;;;;;2.33;1.50;;;;;;;;;;10551171;28;20068;-86
2021/06/19 10:06:36;;;;;;;3.05;2.03;;;;;;;;;;10554719;28;20032;-86
2021/06/19 10:11:37;;;;;;;2.78;2.40;;;;;;;;;;10536667;28;20039;-85
2021/06/19 10:17:02;;;;;;;2.45;2.15;;;;;;;;;;10536208;28;20334;-86
2021/06/19 10:22:25;;;;;;;3.38;2.05;;;;;;;;;;10536990;28;20036;-86
2021/06/19 10:27:29;;;;;;;4.97;2.08;;;;;;;;;;10549703;28;20056;-85
2021/06/19 10:32:42;;;;;;;4.25;2.80;;;;;;;;;;10561902;28;20055;-86
2021/06/19 10:37:44;;;;;;;2.50;1.70;;;;;;;;;;10543443;28;20107;-86
2021/06/19 10:42:45;;;;;;;2.20;1.83;;;;;;;;;;10545886;28;20039;-86
2021/06/19 10:48:16;;;;;;;1.77;1.48;;;;;;;;;;10545726;28;20032;-85
2021/06/19 10:53:27;;;;;;;4.00;1.90;;;;;;;;;;10538681;28;20095;-85
2021/06/19 10:58:35;;;;;;;2.45;1.95;;;;;;;;;;10542889;28;20048;-86
2021/06/19 11:03:50;;;;;;;3.42;2.00;;;;;;;;;;10543262;28;20101;-86
2021/06/19 11:09:07;;;;;;;2.80;1.70;;;;;;;;;;10544455;28;20063;-87
2021/06/19 11:14:08;;;;;;;4.03;1.70;;;;;;;;;;10543207;28;20082;-86
2021/06/19 11:19:09;;;;;;;2.40;1.52;;;;;;;;;;10539612;28;20036;-86
2021/06/19 11:24:35;;;;;;;2.17;1.50;;;;;;;;;;10540099;28;20028;-86
2021/06/19 11:29:53;;;;;;;1.80;1.38;;;;;;;;;;10541054;28;20064;-86
2021/06/19 11:35:01;;;;;;;2.55;2.00;;;;;;;;;;10545503;28;20036;-85
2021/06/19 11:40:06;;;;;;;2.45;1.80;;;;;;;;;;10538363;28;20485;-85
2021/06/19 11:45:27;;;;;;;3.75;2.10;;;;;;;;;;10539241;28;20490;-85
2021/06/19 11:50:29;;;;;;;2.80;1.60;;;;;;;;;;10541949;28;20485;-85
2021/06/19 11:55:30;;;;;;;4.43;1.58;;;;;;;;;;10536010;28;20039;-86
2021/06/19 12:00:31;;;;;;;3.03;1.63;;;;;;;;;;10535193;28;20054;-86
2021/06/19 12:05:32;;;;;;;2.97;1.65;;;;;;;;;;10540354;28;20047;-87
2021/06/19 12:10:33;;;;;;;3.08;1.40;;;;;;;;;;10548032;28;20489;-88
2021/06/19 12:15:35;;;;;;;2.97;2.25;;;;;;;;;;10538959;28;20032;-88
2021/06/19 12:20:36;;;;;;;3.58;1.67;;;;;;;;;;10545882;28;20034;-87
2021/06/19 12:25:37;;;;;;;3.30;1.20;;;;;;;;;;10571978;28;20028;-86
2021/06/19 12:30:37;;;;;;;2.20;1.08;;;;;;;;;;10537402;28;20180;-86
2021/06/19 12:35:38;;;;;;;2.10;1.20;;;;;;;;;;10532983;28;20577;-86
2021/06/19 12:40:42;;;;;;;2.38;1.20;;;;;;;;;;10532373;28;20039;-86
2021/06/19 12:45:47;;;;;;;2.97;1.40;;;;;;;;;;10533760;28;20086;-86
2021/06/19 12:50:49;;;;;;;1.80;1.15;;;;;;;;;;10531237;28;20043;-85
2021/06/19 12:55:57;;;;;;;2.78;1.10;;;;;;;;;;10529441;28;20127;-86
2021/06/19 13:00:58;;;;;;;4.10;1.20;;;;;;;;;;10555633;28;20048;-86
2021/06/19 13:06:01;;;;;;;1.98;1.10;;;;;;;;;;10555555;28;20047;-86
2021/06/19 13:11:18;;;;;;;1.50;1.30;;;;;;;;;;10546223;28;20039;-86
2021/06/19 13:16:29;;;;;;;1.73;1.40;;;;;;;;;;10531865;28;20025;-86
2021/06/19 13:21:30;;;;;;;2.25;1.00;;;;;;;;;;10566271;28;20028;-86
2021/06/19 13:26:31;;;;;;;3.03;1.42;;;;;;;;;;10571666;28;20027;-85
2021/06/19 13:31:32;;;;;;;2.85;1.30;;;;;;;;;;10570262;28;20035;-86
2021/06/19 13:36:41;;;;;;;2.78;1.50;;;;;;;;;;10537505;28;20024;-88
2021/06/19 13:41:47;;;;;;;2.25;1.20;;;;;;;;;;10529995;28;20032;-88
2021/06/19 13:46:49;;;;;;;1.75;1.50;;;;;;;;;;10545976;28;20035;-88
2021/06/19 13:51:55;;;;;;;1.90;1.70;;;;;;;;;;10531893;28;20159;-87
2021/06/19 13:56:57;;;;;;;3.13;1.38;;;;;;;;;;10527999;28;20058;-87
2021/06/19 14:01:58;;;;;;;1.98;1.50;;;;;;;;;;10533578;28;20044;-87
2021/06/19 14:07:02;;;;;;;2.13;1.48;;;;;;;;;;10549828;28;20442;-88
2021/06/19 14:12:04;;;;;;;2.60;1.70;;;;;;;;;;10545249;28;20088;-87
2021/06/19 14:17:05;;;;;;;2.60;1.85;;;;;;;;;;10539921;28;20032;-88
2021/06/19 14:22:06;;;;;;;2.10;1.90;;;;;;;;;;10541922;28;20083;-87
2021/06/19 14:27:10;;;;;;;2.10;1.90;;;;;;;;;;10537493;28;20387;-88
2021/06/19 14:32:12;;;;;;;2.75;1.92;;;;;;;;;;10531172;28;20040;-87
2021/06/19 14:37:13;;;;;;;2.80;2.10;;;;;;;;;;10544090;28;20052;-88
2021/06/19 14:42:14;;;;;;;3.33;2.40;;;;;;;;;;10550918;28;20036;-87
2021/06/19 14:47:15;;;;;;;5.30;2.28;;;;;;;;;;10540454;28;20032;-87
2021/06/19 14:52:16;;;;;;;2.10;1.90;;;;;;;;;;10535498;28;20039;-88
2021/06/19 14:57:17;;;;;;;4.15;2.60;;;;;;;;;;10532095;28;20028;-88
2021/06/19 15:02:18;;;;;;;3.97;2.10;;;;;;;;;;10536278;28;20074;-88
2021/06/19 15:07:22;;;;;;;3.70;2.00;;;;;;;;;;10534106;28;20100;-89
2021/06/19 15:12:25;;;;;;;3.28;2.35;;;;;;;;;;10537970;28;20056;-89
2021/06/19 15:17:29;;;;;;;4.32;2.10;;;;;;;;;;10541216;28;20039;-88
2021/06/19 15:22:30;;;;;;;4.28;3.72;;;;;;;;;;10547121;28;20066;-88
2021/06/19 15:27:35;;;;;;;5.72;2.30;;;;;;;;;;10551021;28;20099;-88
2021/06/19 15:32:36;;;;;;;3.20;2.15;;;;;;;;;;10555741;28;20498;-89
2021/06/19 15:37:37;;;;;;;4.43;2.00;;;;;;;;;;10541932;28;20036;-88
2021/06/19 15:42:38;;;;;;;3.53;2.15;;;;;;;;;;10538960;28;20047;-89
2021/06/19 15:47:39;;;;;;;2.47;2.15;;;;;;;;;;10537699;28;20028;-89
2021/06/19 15:52:40;;;;;;;3.97;2.15;;;;;;;;;;10575665;28;20055;-89
2021/06/19 15:57:44;;;;;;;3.67;2.30;;;;;;;;;;10562505;28;20032;-88
2021/06/19 16:02:45;;;;;;;4.20;2.40;;;;;;;;;;10546101;28;20044;-89
2021/06/19 16:07:47;;;;;;;5.03;2.28;;;;;;;;;;10538961;28;20084;-89
2021/06/19 16:12:48;;;;;;;4.38;2.20;;;;;;;;;;10536160;28;20044;-89
2021/06/19 16:17:52;;;;;;;4.13;2.38;;;;;;;;;;10541646;28;20029;-89
2021/06/19 16:22:53;;;;;;;4.25;2.05;;;;;;;;;;10537350;28;20059;-89
2021/06/19 16:27:54;;;;;;;3.28;2.35;;;;;;;;;;10541282;28;20020;-89
2021/06/19 16:32:56;;;;;;;3.50;2.33;;;;;;;;;;10556870;28;20040;-89
2021/06/19 16:37:56;;;;;;;4.50;2.22;;;;;;;;;;10535284;28;20036;-89
2021/06/19 16:42:57;;;;;;;3.63;2.30;;;;;;;;;;10533447;28;20032;-89
2021/06/19 16:47:58;;;;;;;4.07;2.40;;;;;;;;;;10537395;28;20039;-89
2021/06/19 16:53:02;;;;;;;2.60;2.40;;;;;;;;;;10550923;28;20036;-89
2021/06/19 16:58:05;;;;;;;3.83;2.50;;;;;;;;;;10542063;28;20024;-89
2021/06/19 17:03:06;;;;;;;2.97;2.28;;;;;;;;;;10545477;28;20043;-88
2021/06/19 17:08:07;;;;;;;3.28;2.33;;;;;;;;;;10541019;28;20031;-88
2021/06/19 17:13:08;;;;;;;3.05;2.13;;;;;;;;;;10557813;28;20154;-88
2021/06/19 17:18:09;;;;;;;2.15;1.92;;;;;;;;;;10536450;28;20060;-89
2021/06/19 17:23:10;;;;;;;4.93;2.20;;;;;;;;;;10533593;28;20402;-89
2021/06/19 17:28:11;;;;;;;4.22;2.80;;;;;;;;;;10534275;28;20030;-89
2021/06/19 17:33:12;;;;;;;3.60;2.70;;;;;;;;;;10540247;28;20040;-90
2021/06/19 17:38:21;;;;;;;4.25;3.00;;;;;;;;;;10535136;28;20058;-88
2021/06/19 17:43:22;;;;;;;2.58;2.28;;;;;;;;;;10537379;28;20036;-88
2021/06/19 17:48:24;;;;;;;3.30;2.85;;;;;;;;;;10536750;28;20136;-88
2021/06/19 17:53:26;;;;;;;4.63;2.22;;;;;;;;;;10535740;28;20107;-88
2021/06/19 17:58:27;;;;;;;2.47;2.17;;;;;;;;;;10539123;28;20040;-88
2021/06/19 18:03:28;;;;;;;6.55;4.75;;;;;;;;;;10540016;28;20051;-88
2021/06/19 18:08:30;;;;;;;2.60;2.10;;;;;;;;;;10538470;28;20036;-88
2021/06/19 18:13:31;;;;;;;4.10;2.35;;;;;;;;;;10542839;28;20059;-87
2021/06/19 18:18:34;;;;;;;5.72;2.97;;;;;;;;;;10539202;28;20029;-88
2021/06/19 18:23:35;;;;;;;3.00;2.60;;;;;;;;;;10542238;28;20051;-88
2021/06/19 18:28:36;;;;;;;3.33;2.60;;;;;;;;;;10546390;28;20028;-88
2021/06/19 18:33:37;;;;;;;5.15;3.65;;;;;;;;;;10550869;28;20099;-89
2021/06/19 18:38:38;;;;;;;5.05;3.40;;;;;;;;;;10569183;28;20040;-89
2021/06/19 18:43:39;;;;;;;2.70;2.45;;;;;;;;;;10542798;28;20096;-89
2021/06/19 18:48:44;;;;;;;2.55;1.95;;;;;;;;;;10551190;28;20036;-89
2021/06/19 18:53:45;;;;;;;2.15;1.95;;;;;;;;;;10571611;28;20044;-90
2021/06/19 18:58:46;;;;;;;3.92;2.42;;;;;;;;;;10552793;28;20111;-89
2021/06/19 19:03:47;;;;;;;2.90;2.60;;;;;;;;;;10542552;28;20048;-88
2021/06/19 19:08:49;;;;;;;7.57;4.75;;;;;;;;;;10546794;28;20036;-88
2021/06/19 19:13:50;;;;;;;3.40;3.10;;;;;;;;;;10547841;28;20043;-89
2021/06/19 19:18:51;;;;;;;5.93;2.80;;;;;;;;;;10553301;28;20069;-89
2021/06/19 19:23:52;;;;;;;4.28;2.38;;;;;;;;;;10543215;28;20045;-89
2021/06/19 19:28:53;;;;;;;3.40;2.72;;;;;;;;;;10543059;28;20122;-89
2021/06/19 19:33:55;;;;;;;2.83;2.63;;;;;;;;;;10545316;28;20032;-90
2021/06/19 19:38:56;;;;;;;2.53;2.25;;;;;;;;;;10543302;28;20031;-89
2021/06/19 19:43:58;;;;;;;3.20;2.47;;;;;;;;;;10540525;28;20059;-89
2021/06/19 19:48:59;;;;;;;5.05;4.55;;;;;;;;;;10540089;28;20125;-89
2021/06/19 19:54:00;;;;;;;6.38;2.45;;;;;;;;;;10540269;28;20039;-89
2021/06/19 19:59:01;;;;;;;4.28;2.40;;;;;;;;;;10538541;28;20062;-89
2021/06/19 20:04:02;;;;;;;5.72;3.08;;;;;;;;;;10539522;28;20127;-89
2021/06/19 20:09:03;;;;;;;3.83;2.72;;;;;;;;;;10541047;28;20040;-89
2021/06/19 20:14:04;;;;;;;4.32;2.35;;;;;;;;;;10542426;28;20043;-90
2021/06/19 20:19:05;;;;;;;5.40;2.28;;;;;;;;;;10543631;28;20123;-89
2021/06/19 20:24:07;;;;;;;3.25;2.70;;;;;;;;;;10551685;28;20053;-89
2021/06/19 20:29:08;;;;;;;3.38;2.60;;;;;;;;;;10546463;28;20039;-90
2021/06/19 20:34:09;;;;;;;3.28;2.97;;;;;;;;;;10551253;28;20036;-90
2021/06/19 20:39:10;;;;;;;3.60;2.20;;;;;;;;;;10569174;28;20044;-88
2021/06/19 20:44:11;;;;;;;5.15;2.30;;;;;;;;;;10545806;28;20122;-89
2021/06/19 20:49:12;;;;;;;2.50;2.30;;;;;;;;;;10541860;28;20032;-89
2021/06/19 20:54:13;;;;;;;4.45;3.83;;;;;;;;;;10543862;28;20098;-89
2021/06/19 20:59:14;;;;;;;3.22;2.92;;;;;;;;;;10541717;28;20040;-88
2021/06/19 21:04:15;;;;;;;3.38;2.97;;;;;;;;;;10532859;28;20630;-88
2021/06/19 21:09:16;;;;;;;4.07;3.00;;;;;;;;;;10532566;28;20040;-88
2021/06/19 21:14:17;;;;;;;3.22;2.70;;;;;;;;;;10534523;28;20136;-88
2021/06/19 21:19:18;;;;;;;4.47;3.03;;;;;;;;;;10532226;28;20131;-89
2021/06/19 21:24:20;;;;;;;4.03;3.53;;;;;;;;;;10553318;28;20020;-90
2021/06/19 21:29:21;;;;;;;3.05;2.75;;;;;;;;;;10561180;28;20040;-89
2021/06/19 21:34:22;;;;;;;5.75;3.00;;;;;;;;;;10559630;28;20048;-88
2021/06/19 21:39:23;;;;;;;5.95;2.78;;;;;;;;;;10549415;28;20032;-88
2021/06/19 21:44:24;;;;;;;3.25;2.90;;;;;;;;;;10537737;28;20096;-89
2021/06/19 21:49:31;;;;;;;3.97;2.90;;;;;;;;;;10535166;28;20030;-88
2021/06/19 21:54:32;;;;;;;2.83;2.30;;;;;;;;;;10542879;28;20059;-87
2021/06/19 21:59:34;;;;;;;2.63;2.42;;;;;;;;;;10564765;28;20138;-88
2021/06/19 22:04:41;;;;;;;3.38;2.20;;;;;;;;;;10536338;28;20032;-88
2021/06/19 22:09:42;;;;;;;6.20;2.80;;;;;;;;;;10535109;28;20519;-88
2021/06/19 22:14:43;;;;;;;3.92;2.47;;;;;;;;;;10537625;28;20384;-88
2021/06/19 22:19:46;;;;;;;6.35;2.50;;;;;;;;;;10550884;28;20117;-87
2021/06/19 22:24:47;;;;;;;6.35;2.63;;;;;;;;;;10570190;28;20044;-88
2021/06/19 22:29:48;;;;;;;5.72;2.67;;;;;;;;;;10549658;28;20078;-89
2021/06/19 22:34:52;;;;;;;8.63;3.28;;;;;;;;;;10547142;28;20498;-88
2021/06/19 22:39:53;;;;;;;3.28;2.22;;;;;;;;;;10547804;28;20036;-87
2021/06/19 22:44:54;;;;;;;3.78;2.22;;;;;;;;;;10558220;28;20070;-88
2021/06/19 22:49:58;;;;;;;6.07;3.22;;;;;;;;;;10542935;28;20028;-88
2021/06/19 22:55:02;;;;;;;3.10;2.75;;;;;;;;;;10543289;28;20036;-88
2021/06/19 23:00:03;;;;;;;6.30;3.40;;;;;;;;;;10544773;28;20210;-90
2021/06/19 23:05:05;;;;;;;4.53;2.53;;;;;;;;;;10551919;28;20036;-87
2021/06/19 23:10:10;;;;;;;5.97;3.70;;;;;;;;;;10549350;28;20040;-87
2021/06/19 23:15:11;;;;;;;7.25;3.85;;;;;;;;;;10544302;28;20032;-88
2021/06/19 23:20:13;;;;;;;5.05;3.20;;;;;;;;;;10542096;28;20036;-87
2021/06/19 23:25:15;;;;;;;5.65;3.90;;;;;;;;;;10542423;28;20032;-88
2021/06/19 23:30:25;;;;;;;7.97;3.67;;;;;;;;;;10544466;28;20048;-88
2021/06/19 23:35:26;;;;;;;7.80;3.80;;;;;;;;;;10561738;28;20099;-89
2021/06/19 23:40:27;;;;;;;4.90;2.67;;;;;;;;;;10556240;28;20035;-89
2021/06/19 23:45:28;;;;;;;11.07;9.45;;;;;;;;;;10553834;28;20472;-88
2021/06/19 23:50:29;;;;;;;8.80;3.35;;;;;;;;;;10552645;28;20036;-89
2021/06/19 23:55:36;;;;;;;6.00;3.22;;;;;;;;;;10558322;28;20119;-88
